sensor_id;sensor_type;location;lat;lon;timestamp;temperature;humidity
23143;DHT22;11740;51.168;4.112;2023-05-19T00:02:24;13.60;1.00
23143;DHT22;11740;51.168;4.112;2023-05-19T00:04:51;13.50;1.00
23143;DHT22;11740;51.168;4.112;2023-05-19T00:07:18;13.50;1.00
23143;DHT22;11740;51.168;4.112;2023-05-19T00:09:49;13.40;1.00
23143;DHT22;11740;51.168;4.112;2023-05-19T00:12:16;13.30;1.00
23143;DHT22;11740;51.168;4.112;2023-05-19T00:14:43;13.30;1.00
23143;DHT22;11740;51.168;4.112;2023-05-19T00:17:10;13.20;1.00
23143;DHT22;11740;51.168;4.112;2023-05-19T00:19:37;13.20;1.00
23143;DHT22;11740;51.168;4.112;2023-05-19T00:22:04;13.10;1.00
23143;DHT22;11740;51.168;4.112;2023-05-19T00:24:31;13.00;1.00
23143;DHT22;11740;51.168;4.112;2023-05-19T00:26:58;13.00;1.00
23143;DHT22;11740;51.168;4.112;2023-05-19T00:29:25;12.90;1.00
23143;DHT22;11740;51.168;4.112;2023-05-19T00:31:52;12.90;1.00
23143;DHT22;11740;51.168;4.112;2023-05-19T00:34:19;12.80;1.00
23143;DHT22;11740;51.168;4.112;2023-05-19T00:36:46;12.70;1.00
23143;DHT22;11740;51.168;4.112;2023-05-19T00:39:12;12.60;1.00
23143;DHT22;11740;51.168;4.112;2023-05-19T00:41:39;12.50;1.00
23143;DHT22;11740;51.168;4.112;2023-05-19T00:44:06;12.50;1.00
23143;DHT22;11740;51.168;4.112;2023-05-19T00:46:33;12.50;1.00
23143;DHT22;11740;51.168;4.112;2023-05-19T00:49:00;12.40;1.00
23143;DHT22;11740;51.168;4.112;2023-05-19T00:51:27;12.40;1.00
23143;DHT22;11740;51.168;4.112;2023-05-19T00:53:55;12.30;1.00
23143;DHT22;11740;51.168;4.112;2023-05-19T00:56:22;12.20;1.00
23143;DHT22;11740;51.168;4.112;2023-05-19T00:58:49;12.20;1.00
23143;DHT22;11740;51.168;4.112;2023-05-19T01:01:17;12.20;1.00
23143;DHT22;11740;51.168;4.112;2023-05-19T01:03:44;12.20;1.00
23143;DHT22;11740;51.168;4.112;2023-05-19T01:06:12;12.10;1.00
23143;DHT22;11740;51.168;4.112;2023-05-19T01:08:40;12.10;1.00
23143;DHT22;11740;51.168;4.112;2023-05-19T01:11:07;12.00;1.00
23143;DHT22;11740;51.168;4.112;2023-05-19T01:13:34;12.00;1.00
23143;DHT22;11740;51.168;4.112;2023-05-19T01:19:00;11.80;1.00
23143;DHT22;11740;51.168;4.112;2023-05-19T01:24:54;11.80;1.00
23143;DHT22;11740;51.168;4.112;2023-05-19T01:30:28;11.60;1.00
23143;DHT22;11740;51.168;4.112;2023-05-19T01:33:01;11.60;1.00
23143;DHT22;11740;51.168;4.112;2023-05-19T01:35:29;11.50;1.00
23143;DHT22;11740;51.168;4.112;2023-05-19T01:37:57;11.50;1.00
23143;DHT22;11740;51.168;4.112;2023-05-19T01:40:25;11.40;1.00
23143;DHT22;11740;51.168;4.112;2023-05-19T01:42:53;11.40;1.00
23143;DHT22;11740;51.168;4.112;2023-05-19T01:45:23;11.30;1.00
23143;DHT22;11740;51.168;4.112;2023-05-19T01:47:52;11.30;1.00
23143;DHT22;11740;51.168;4.112;2023-05-19T01:50:21;11.20;1.00
23143;DHT22;11740;51.168;4.112;2023-05-19T01:52:48;11.20;1.00
23143;DHT22;11740;51.168;4.112;2023-05-19T01:55:15;11.10;1.00
23143;DHT22;11740;51.168;4.112;2023-05-19T02:00:24;11.00;1.00
23143;DHT22;11740;51.168;4.112;2023-05-19T02:05:35;11.00;1.00
23143;DHT22;11740;51.168;4.112;2023-05-19T02:10:43;10.80;1.00
23143;DHT22;11740;51.168;4.112;2023-05-19T02:13:12;10.80;1.00
23143;DHT22;11740;51.168;4.112;2023-05-19T02:15:40;10.80;1.00
23143;DHT22;11740;51.168;4.112;2023-05-19T02:18:11;10.70;1.00
23143;DHT22;11740;51.168;4.112;2023-05-19T02:20:38;10.70;1.00
23143;DHT22;11740;51.168;4.112;2023-05-19T02:23:05;10.60;1.00
23143;DHT22;11740;51.168;4.112;2023-05-19T02:25:32;10.60;1.00
23143;DHT22;11740;51.168;4.112;2023-05-19T02:27:59;10.50;1.00
23143;DHT22;11740;51.168;4.112;2023-05-19T02:30:26;10.40;1.00
23143;DHT22;11740;51.168;4.112;2023-05-19T02:32:53;10.40;1.00
23143;DHT22;11740;51.168;4.112;2023-05-19T02:35:22;10.40;1.00
23143;DHT22;11740;51.168;4.112;2023-05-19T02:37:49;10.40;1.00
23143;DHT22;11740;51.168;4.112;2023-05-19T02:40:17;10.30;1.00
23143;DHT22;11740;51.168;4.112;2023-05-19T02:42:43;10.30;1.00
23143;DHT22;11740;51.168;4.112;2023-05-19T02:45:10;10.30;1.00
23143;DHT22;11740;51.168;4.112;2023-05-19T02:47:37;10.20;1.00
23143;DHT22;11740;51.168;4.112;2023-05-19T02:50:04;10.20;1.00
23143;DHT22;11740;51.168;4.112;2023-05-19T02:52:31;10.10;1.00
23143;DHT22;11740;51.168;4.112;2023-05-19T02:54:58;10.10;1.00
23143;DHT22;11740;51.168;4.112;2023-05-19T02:57:25;10.10;1.00
23143;DHT22;11740;51.168;4.112;2023-05-19T02:59:52;10.00;1.00
23143;DHT22;11740;51.168;4.112;2023-05-19T03:02:19;10.00;1.00
23143;DHT22;11740;51.168;4.112;2023-05-19T03:04:46;9.90;1.00
23143;DHT22;11740;51.168;4.112;2023-05-19T03:07:13;9.90;1.00
23143;DHT22;11740;51.168;4.112;2023-05-19T03:09:41;9.90;1.00
23143;DHT22;11740;51.168;4.112;2023-05-19T03:12:07;9.80;1.00
23143;DHT22;11740;51.168;4.112;2023-05-19T03:14:34;9.80;1.00
23143;DHT22;11740;51.168;4.112;2023-05-19T03:17:04;9.80;1.00
23143;DHT22;11740;51.168;4.112;2023-05-19T03:19:33;9.70;1.00
23143;DHT22;11740;51.168;4.112;2023-05-19T03:22:00;9.70;1.00
23143;DHT22;11740;51.168;4.112;2023-05-19T03:24:27;9.70;1.00
23143;DHT22;11740;51.168;4.112;2023-05-19T03:26:54;9.60;1.00
23143;DHT22;11740;51.168;4.112;2023-05-19T03:29:21;9.60;1.00
23143;DHT22;11740;51.168;4.112;2023-05-19T03:31:48;9.60;1.00
23143;DHT22;11740;51.168;4.112;2023-05-19T03:34:15;9.50;1.00
23143;DHT22;11740;51.168;4.112;2023-05-19T03:36:41;9.50;1.00
23143;DHT22;11740;51.168;4.112;2023-05-19T03:39:10;9.40;1.00
23143;DHT22;11740;51.168;4.112;2023-05-19T03:41:37;9.40;1.00
23143;DHT22;11740;51.168;4.112;2023-05-19T03:44:04;9.30;1.00
23143;DHT22;11740;51.168;4.112;2023-05-19T03:46:31;9.40;1.00
23143;DHT22;11740;51.168;4.112;2023-05-19T03:48:58;9.30;1.00
23143;DHT22;11740;51.168;4.112;2023-05-19T03:51:24;9.20;1.00
23143;DHT22;11740;51.168;4.112;2023-05-19T03:53:54;9.10;1.00
23143;DHT22;11740;51.168;4.112;2023-05-19T03:56:21;9.10;1.00
23143;DHT22;11740;51.168;4.112;2023-05-19T03:58:49;9.10;1.00
23143;DHT22;11740;51.168;4.112;2023-05-19T04:01:16;9.10;1.00
23143;DHT22;11740;51.168;4.112;2023-05-19T04:03:43;9.00;1.00
23143;DHT22;11740;51.168;4.112;2023-05-19T04:06:09;9.00;1.00
23143;DHT22;11740;51.168;4.112;2023-05-19T04:08:36;9.00;1.00
23143;DHT22;11740;51.168;4.112;2023-05-19T04:11:03;8.90;1.00
23143;DHT22;11740;51.168;4.112;2023-05-19T04:13:33;8.90;1.00
23143;DHT22;11740;51.168;4.112;2023-05-19T04:16:00;8.90;1.00
23143;DHT22;11740;51.168;4.112;2023-05-19T04:18:27;8.80;1.00
23143;DHT22;11740;51.168;4.112;2023-05-19T04:20:54;8.90;1.00
23143;DHT22;11740;51.168;4.112;2023-05-19T04:23:21;8.90;1.00
23143;DHT22;11740;51.168;4.112;2023-05-19T04:25:48;8.80;1.00
23143;DHT22;11740;51.168;4.112;2023-05-19T04:28:15;8.80;1.00
23143;DHT22;11740;51.168;4.112;2023-05-19T04:30:43;8.80;1.00
23143;DHT22;11740;51.168;4.112;2023-05-19T04:33:12;8.70;1.00
23143;DHT22;11740;51.168;4.112;2023-05-19T04:35:39;8.70;1.00
23143;DHT22;11740;51.168;4.112;2023-05-19T04:38:06;8.70;1.00
23143;DHT22;11740;51.168;4.112;2023-05-19T04:40:33;8.70;1.00
23143;DHT22;11740;51.168;4.112;2023-05-19T04:43:00;8.60;1.00
23143;DHT22;11740;51.168;4.112;2023-05-19T04:45:27;8.70;1.00
23143;DHT22;11740;51.168;4.112;2023-05-19T04:47:54;8.60;1.00
23143;DHT22;11740;51.168;4.112;2023-05-19T04:50:23;8.60;1.00
23143;DHT22;11740;51.168;4.112;2023-05-19T04:52:50;8.60;1.00
23143;DHT22;11740;51.168;4.112;2023-05-19T04:55:17;8.60;1.00
23143;DHT22;11740;51.168;4.112;2023-05-19T04:57:44;8.50;11.40
23143;DHT22;11740;51.168;4.112;2023-05-19T05:00:11;8.50;1.00
23143;DHT22;11740;51.168;4.112;2023-05-19T05:02:39;8.50;1.00
23143;DHT22;11740;51.168;4.112;2023-05-19T05:05:08;8.60;5.10
23143;DHT22;11740;51.168;4.112;2023-05-19T05:07:35;8.60;15.50
23143;DHT22;11740;51.168;4.112;2023-05-19T05:10:02;8.60;4.30
23143;DHT22;11740;51.168;4.112;2023-05-19T05:12:30;8.60;98.10
23143;DHT22;11740;51.168;4.112;2023-05-19T05:14:57;8.60;39.90
23143;DHT22;11740;51.168;4.112;2023-05-19T05:17:24;8.60;36.40
23143;DHT22;11740;51.168;4.112;2023-05-19T05:19:52;8.60;23.90
23143;DHT22;11740;51.168;4.112;2023-05-19T05:22:19;8.70;57.80
23143;DHT22;11740;51.168;4.112;2023-05-19T05:24:47;8.60;76.20
23143;DHT22;11740;51.168;4.112;2023-05-19T05:27:14;8.70;64.80
23143;DHT22;11740;51.168;4.112;2023-05-19T05:29:41;8.70;99.90
23143;DHT22;11740;51.168;4.112;2023-05-19T05:32:08;8.70;86.20
23143;DHT22;11740;51.168;4.112;2023-05-19T05:34:34;8.80;99.90
23143;DHT22;11740;51.168;4.112;2023-05-19T05:37:03;8.70;99.90
23143;DHT22;11740;51.168;4.112;2023-05-19T05:39:30;8.80;99.90
23143;DHT22;11740;51.168;4.112;2023-05-19T05:41:57;8.80;99.90
23143;DHT22;11740;51.168;4.112;2023-05-19T05:44:24;8.90;99.90
23143;DHT22;11740;51.168;4.112;2023-05-19T05:46:51;8.90;99.90
23143;DHT22;11740;51.168;4.112;2023-05-19T05:49:18;9.00;99.90
23143;DHT22;11740;51.168;4.112;2023-05-19T05:51:45;9.00;99.90
23143;DHT22;11740;51.168;4.112;2023-05-19T05:54:30;9.00;99.90
23143;DHT22;11740;51.168;4.112;2023-05-19T05:56:58;9.00;99.90
23143;DHT22;11740;51.168;4.112;2023-05-19T05:59:25;9.10;99.90
23143;DHT22;11740;51.168;4.112;2023-05-19T06:01:51;9.10;99.90
23143;DHT22;11740;51.168;4.112;2023-05-19T06:04:18;9.20;99.90
23143;DHT22;11740;51.168;4.112;2023-05-19T06:06:46;9.20;99.90
23143;DHT22;11740;51.168;4.112;2023-05-19T06:09:13;9.20;99.90
23143;DHT22;11740;51.168;4.112;2023-05-19T06:11:40;9.20;99.90
23143;DHT22;11740;51.168;4.112;2023-05-19T06:14:07;9.30;99.90
23143;DHT22;11740;51.168;4.112;2023-05-19T06:16:33;9.30;99.90
23143;DHT22;11740;51.168;4.112;2023-05-19T06:19:01;9.30;99.90
23143;DHT22;11740;51.168;4.112;2023-05-19T06:21:28;9.40;99.90
23143;DHT22;11740;51.168;4.112;2023-05-19T06:23:54;9.40;99.90
23143;DHT22;11740;51.168;4.112;2023-05-19T06:26:21;9.50;99.90
23143;DHT22;11740;51.168;4.112;2023-05-19T06:28:48;9.50;99.90
23143;DHT22;11740;51.168;4.112;2023-05-19T06:31:15;9.50;99.90
23143;DHT22;11740;51.168;4.112;2023-05-19T06:33:42;9.60;99.90
23143;DHT22;11740;51.168;4.112;2023-05-19T06:36:09;9.60;99.90
23143;DHT22;11740;51.168;4.112;2023-05-19T06:38:36;9.70;99.90
23143;DHT22;11740;51.168;4.112;2023-05-19T06:41:03;9.70;99.90
23143;DHT22;11740;51.168;4.112;2023-05-19T06:43:30;9.80;99.90
23143;DHT22;11740;51.168;4.112;2023-05-19T06:45:56;9.80;99.90
23143;DHT22;11740;51.168;4.112;2023-05-19T06:48:23;9.80;99.90
23143;DHT22;11740;51.168;4.112;2023-05-19T06:50:50;9.80;99.90
23143;DHT22;11740;51.168;4.112;2023-05-19T06:53:18;9.90;99.90
23143;DHT22;11740;51.168;4.112;2023-05-19T06:55:46;9.90;99.90
23143;DHT22;11740;51.168;4.112;2023-05-19T06:58:25;10.00;99.90
23143;DHT22;11740;51.168;4.112;2023-05-19T07:00:53;10.10;99.90
23143;DHT22;11740;51.168;4.112;2023-05-19T07:03:20;10.10;99.90
23143;DHT22;11740;51.168;4.112;2023-05-19T07:05:47;10.10;99.90
23143;DHT22;11740;51.168;4.112;2023-05-19T07:08:15;10.10;99.90
23143;DHT22;11740;51.168;4.112;2023-05-19T07:10:47;10.20;99.90
23143;DHT22;11740;51.168;4.112;2023-05-19T07:13:14;10.30;99.90
23143;DHT22;11740;51.168;4.112;2023-05-19T07:15:40;10.40;99.90
23143;DHT22;11740;51.168;4.112;2023-05-19T07:18:07;10.40;99.90
23143;DHT22;11740;51.168;4.112;2023-05-19T07:20:35;10.40;99.90
23143;DHT22;11740;51.168;4.112;2023-05-19T07:23:01;10.50;99.90
23143;DHT22;11740;51.168;4.112;2023-05-19T07:25:29;10.60;99.90
23143;DHT22;11740;51.168;4.112;2023-05-19T07:27:56;10.60;99.90
23143;DHT22;11740;51.168;4.112;2023-05-19T07:30:23;10.50;99.90
23143;DHT22;11740;51.168;4.112;2023-05-19T07:32:50;10.60;99.90
23143;DHT22;11740;51.168;4.112;2023-05-19T07:35:16;10.70;99.90
23143;DHT22;11740;51.168;4.112;2023-05-19T07:37:43;10.80;99.90
23143;DHT22;11740;51.168;4.112;2023-05-19T07:40:10;10.80;99.90
23143;DHT22;11740;51.168;4.112;2023-05-19T07:42:38;10.80;99.90
23143;DHT22;11740;51.168;4.112;2023-05-19T07:45:04;10.90;99.90
23143;DHT22;11740;51.168;4.112;2023-05-19T07:47:32;11.00;99.90
23143;DHT22;11740;51.168;4.112;2023-05-19T07:49:59;11.10;99.90
23143;DHT22;11740;51.168;4.112;2023-05-19T07:52:26;11.20;99.90
23143;DHT22;11740;51.168;4.112;2023-05-19T07:54:53;11.20;99.90
23143;DHT22;11740;51.168;4.112;2023-05-19T07:57:20;11.20;99.90
23143;DHT22;11740;51.168;4.112;2023-05-19T07:59:47;11.40;99.90
23143;DHT22;11740;51.168;4.112;2023-05-19T08:02:14;11.50;99.90
23143;DHT22;11740;51.168;4.112;2023-05-19T08:04:41;11.60;99.90
23143;DHT22;11740;51.168;4.112;2023-05-19T08:07:08;11.80;99.90
23143;DHT22;11740;51.168;4.112;2023-05-19T08:09:35;12.00;99.90
23143;DHT22;11740;51.168;4.112;2023-05-19T08:12:02;12.20;99.90
23143;DHT22;11740;51.168;4.112;2023-05-19T08:14:30;12.30;99.90
23143;DHT22;11740;51.168;4.112;2023-05-19T08:16:58;12.40;99.90
23143;DHT22;11740;51.168;4.112;2023-05-19T08:19:25;12.70;99.90
23143;DHT22;11740;51.168;4.112;2023-05-19T08:21:52;12.80;99.90
23143;DHT22;11740;51.168;4.112;2023-05-19T08:24:19;13.10;99.90
23143;DHT22;11740;51.168;4.112;2023-05-19T08:26:46;13.40;99.90
23143;DHT22;11740;51.168;4.112;2023-05-19T08:29:13;13.70;99.90
23143;DHT22;11740;51.168;4.112;2023-05-19T08:31:39;14.00;99.90
23143;DHT22;11740;51.168;4.112;2023-05-19T08:34:06;14.30;99.90
23143;DHT22;11740;51.168;4.112;2023-05-19T08:36:33;14.40;99.90
23143;DHT22;11740;51.168;4.112;2023-05-19T08:39:01;14.70;99.90
23143;DHT22;11740;51.168;4.112;2023-05-19T08:41:28;14.80;99.90
23143;DHT22;11740;51.168;4.112;2023-05-19T08:43:54;14.90;99.90
23143;DHT22;11740;51.168;4.112;2023-05-19T08:46:21;15.20;99.90
23143;DHT22;11740;51.168;4.112;2023-05-19T08:48:52;15.40;99.90
23143;DHT22;11740;51.168;4.112;2023-05-19T08:51:54;15.30;99.90
23143;DHT22;11740;51.168;4.112;2023-05-19T08:54:40;15.50;99.90
23143;DHT22;11740;51.168;4.112;2023-05-19T08:57:10;15.80;99.90
23143;DHT22;11740;51.168;4.112;2023-05-19T08:59:38;16.00;99.90
23143;DHT22;11740;51.168;4.112;2023-05-19T09:02:05;16.20;99.90
23143;DHT22;11740;51.168;4.112;2023-05-19T09:04:33;16.10;99.90
23143;DHT22;11740;51.168;4.112;2023-05-19T09:07:00;16.10;87.10
23143;DHT22;11740;51.168;4.112;2023-05-19T09:09:29;16.10;93.20
23143;DHT22;11740;51.168;4.112;2023-05-19T09:11:56;16.20;80.20
23143;DHT22;11740;51.168;4.112;2023-05-19T09:14:23;16.30;75.10
23143;DHT22;11740;51.168;4.112;2023-05-19T09:16:50;16.50;68.10
23143;DHT22;11740;51.168;4.112;2023-05-19T09:19:18;16.60;62.80
23143;DHT22;11740;51.168;4.112;2023-05-19T09:21:47;16.80;71.40
23143;DHT22;11740;51.168;4.112;2023-05-19T09:24:24;16.70;51.80
23143;DHT22;11740;51.168;4.112;2023-05-19T09:26:52;16.80;55.30
23143;DHT22;11740;51.168;4.112;2023-05-19T09:29:23;16.90;55.50
23143;DHT22;11740;51.168;4.112;2023-05-19T09:31:51;17.00;38.80
23143;DHT22;11740;51.168;4.112;2023-05-19T09:34:20;17.00;26.20
23143;DHT22;11740;51.168;4.112;2023-05-19T09:36:49;17.00;28.90
23143;DHT22;11740;51.168;4.112;2023-05-19T09:39:17;17.10;27.30
23143;DHT22;11740;51.168;4.112;2023-05-19T09:41:46;17.10;25.70
23143;DHT22;11740;51.168;4.112;2023-05-19T09:46:49;16.90;16.70
23143;DHT22;11740;51.168;4.112;2023-05-19T09:49:20;16.90;19.50
23143;DHT22;11740;51.168;4.112;2023-05-19T09:51:58;17.10;34.40
23143;DHT22;11740;51.168;4.112;2023-05-19T09:54:29;17.30;27.60
23143;DHT22;11740;51.168;4.112;2023-05-19T09:57:01;17.40;21.00
23143;DHT22;11740;51.168;4.112;2023-05-19T09:59:30;17.50;20.90
23143;DHT22;11740;51.168;4.112;2023-05-19T10:01:59;17.50;18.70
23143;DHT22;11740;51.168;4.112;2023-05-19T10:04:28;17.60;17.90
23143;DHT22;11740;51.168;4.112;2023-05-19T10:06:56;17.70;17.00
23143;DHT22;11740;51.168;4.112;2023-05-19T10:09:27;17.70;16.80
23143;DHT22;11740;51.168;4.112;2023-05-19T10:11:55;17.70;14.80
23143;DHT22;11740;51.168;4.112;2023-05-19T10:14:26;17.70;14.70
23143;DHT22;11740;51.168;4.112;2023-05-19T10:16:55;17.70;13.50
23143;DHT22;11740;51.168;4.112;2023-05-19T10:19:23;17.60;1.00
23143;DHT22;11740;51.168;4.112;2023-05-19T10:21:53;17.70;6.80
23143;DHT22;11740;51.168;4.112;2023-05-19T10:24:20;17.90;5.50
23143;DHT22;11740;51.168;4.112;2023-05-19T10:29:25;17.80;1.00
23143;DHT22;11740;51.168;4.112;2023-05-19T10:31:54;17.90;1.00
23143;DHT22;11740;51.168;4.112;2023-05-19T10:39:38;18.10;1.00
23143;DHT22;11740;51.168;4.112;2023-05-19T10:42:15;18.30;1.00
23143;DHT22;11740;51.168;4.112;2023-05-19T10:47:29;18.40;1.00
23143;DHT22;11740;51.168;4.112;2023-05-19T10:49:59;18.50;1.00
23143;DHT22;11740;51.168;4.112;2023-05-19T10:52:26;18.60;1.00
23143;DHT22;11740;51.168;4.112;2023-05-19T10:54:55;18.60;1.00
23143;DHT22;11740;51.168;4.112;2023-05-19T10:57:24;18.80;1.00
23143;DHT22;11740;51.168;4.112;2023-05-19T10:59:57;19.00;2.20
23143;DHT22;11740;51.168;4.112;2023-05-19T11:02:37;18.90;1.00
23143;DHT22;11740;51.168;4.112;2023-05-19T11:05:12;19.00;1.00
23143;DHT22;11740;51.168;4.112;2023-05-19T11:07:42;19.00;1.00
23143;DHT22;11740;51.168;4.112;2023-05-19T11:10:10;19.00;1.00
23143;DHT22;11740;51.168;4.112;2023-05-19T11:12:41;19.00;1.00
23143;DHT22;11740;51.168;4.112;2023-05-19T11:15:18;19.00;1.00
23143;DHT22;11740;51.168;4.112;2023-05-19T11:17:51;19.00;1.00
23143;DHT22;11740;51.168;4.112;2023-05-19T11:23:07;19.30;1.00
23143;DHT22;11740;51.168;4.112;2023-05-19T11:25:41;19.40;1.00
23143;DHT22;11740;51.168;4.112;2023-05-19T11:28:12;19.60;1.00
23143;DHT22;11740;51.168;4.112;2023-05-19T11:30:42;19.60;1.00
23143;DHT22;11740;51.168;4.112;2023-05-19T11:33:10;19.60;1.00
23143;DHT22;11740;51.168;4.112;2023-05-19T11:35:39;19.80;1.00
23143;DHT22;11740;51.168;4.112;2023-05-19T11:38:06;19.80;1.00
23143;DHT22;11740;51.168;4.112;2023-05-19T11:40:33;20.00;1.00
23143;DHT22;11740;51.168;4.112;2023-05-19T11:43:00;20.00;1.00
23143;DHT22;11740;51.168;4.112;2023-05-19T11:45:27;20.20;1.00
23143;DHT22;11740;51.168;4.112;2023-05-19T11:47:55;20.40;1.00
23143;DHT22;11740;51.168;4.112;2023-05-19T11:50:29;20.40;1.00
23143;DHT22;11740;51.168;4.112;2023-05-19T11:52:58;20.40;1.00
23143;DHT22;11740;51.168;4.112;2023-05-19T11:55:26;20.50;1.00
23143;DHT22;11740;51.168;4.112;2023-05-19T11:58:03;20.70;1.00
23143;DHT22;11740;51.168;4.112;2023-05-19T12:00:35;20.80;1.00
23143;DHT22;11740;51.168;4.112;2023-05-19T12:03:03;20.80;1.00
23143;DHT22;11740;51.168;4.112;2023-05-19T12:05:31;20.90;1.00
23143;DHT22;11740;51.168;4.112;2023-05-19T12:08:04;21.10;1.00
23143;DHT22;11740;51.168;4.112;2023-05-19T12:10:31;21.00;1.00
23143;DHT22;11740;51.168;4.112;2023-05-19T12:13:01;21.00;1.00
23143;DHT22;11740;51.168;4.112;2023-05-19T12:15:29;21.00;1.00
23143;DHT22;11740;51.168;4.112;2023-05-19T12:17:57;21.10;1.00
23143;DHT22;11740;51.168;4.112;2023-05-19T12:20:26;21.10;1.00
23143;DHT22;11740;51.168;4.112;2023-05-19T12:22:54;21.20;1.00
23143;DHT22;11740;51.168;4.112;2023-05-19T12:25:22;21.40;1.00
23143;DHT22;11740;51.168;4.112;2023-05-19T12:27:49;21.50;1.00
23143;DHT22;11740;51.168;4.112;2023-05-19T12:30:23;21.60;1.00
23143;DHT22;11740;51.168;4.112;2023-05-19T12:32:52;21.70;1.00
23143;DHT22;11740;51.168;4.112;2023-05-19T12:35:19;21.80;1.00
23143;DHT22;11740;51.168;4.112;2023-05-19T12:37:48;21.90;1.00
23143;DHT22;11740;51.168;4.112;2023-05-19T12:40:16;22.00;1.00
23143;DHT22;11740;51.168;4.112;2023-05-19T12:42:43;22.20;1.00
23143;DHT22;11740;51.168;4.112;2023-05-19T12:45:10;22.30;1.00
23143;DHT22;11740;51.168;4.112;2023-05-19T12:47:37;22.40;1.00
23143;DHT22;11740;51.168;4.112;2023-05-19T12:52:54;22.80;1.00
23143;DHT22;11740;51.168;4.112;2023-05-19T12:55:20;22.70;1.00
23143;DHT22;11740;51.168;4.112;2023-05-19T12:57:49;22.60;1.00
23143;DHT22;11740;51.168;4.112;2023-05-19T13:00:23;22.60;1.00
23143;DHT22;11740;51.168;4.112;2023-05-19T13:05:21;22.80;1.00
23143;DHT22;11740;51.168;4.112;2023-05-19T13:07:55;23.10;1.00
23143;DHT22;11740;51.168;4.112;2023-05-19T13:10:22;23.10;1.00
23143;DHT22;11740;51.168;4.112;2023-05-19T13:12:49;23.10;1.00
23143;DHT22;11740;51.168;4.112;2023-05-19T13:15:17;23.20;1.00
23143;DHT22;11740;51.168;4.112;2023-05-19T13:17:44;23.40;1.00
23143;DHT22;11740;51.168;4.112;2023-05-19T13:20:12;23.50;1.00
23143;DHT22;11740;51.168;4.112;2023-05-19T13:22:39;23.60;1.00
23143;DHT22;11740;51.168;4.112;2023-05-19T13:25:06;23.60;1.00
23143;DHT22;11740;51.168;4.112;2023-05-19T13:27:33;23.70;1.00
23143;DHT22;11740;51.168;4.112;2023-05-19T13:30:01;23.80;1.00
23143;DHT22;11740;51.168;4.112;2023-05-19T13:32:28;23.90;1.00
23143;DHT22;11740;51.168;4.112;2023-05-19T13:34:55;24.00;1.00
23143;DHT22;11740;51.168;4.112;2023-05-19T13:37:22;24.10;1.00
23143;DHT22;11740;51.168;4.112;2023-05-19T13:39:50;24.20;1.00
23143;DHT22;11740;51.168;4.112;2023-05-19T13:42:17;24.30;1.00
23143;DHT22;11740;51.168;4.112;2023-05-19T13:44:44;24.20;1.00
23143;DHT22;11740;51.168;4.112;2023-05-19T13:47:12;24.30;1.00
23143;DHT22;11740;51.168;4.112;2023-05-19T13:49:39;24.50;1.00
23143;DHT22;11740;51.168;4.112;2023-05-19T13:52:06;24.60;1.00
23143;DHT22;11740;51.168;4.112;2023-05-19T13:54:33;24.90;1.00
23143;DHT22;11740;51.168;4.112;2023-05-19T13:57:00;24.90;1.00
23143;DHT22;11740;51.168;4.112;2023-05-19T13:59:27;25.00;1.00
23143;DHT22;11740;51.168;4.112;2023-05-19T14:01:55;25.20;1.00
23143;DHT22;11740;51.168;4.112;2023-05-19T14:04:22;25.20;1.00
23143;DHT22;11740;51.168;4.112;2023-05-19T14:06:50;25.30;1.00
23143;DHT22;11740;51.168;4.112;2023-05-19T14:09:16;25.50;1.00
23143;DHT22;11740;51.168;4.112;2023-05-19T14:11:43;25.60;1.00
23143;DHT22;11740;51.168;4.112;2023-05-19T14:14:10;25.50;1.00
23143;DHT22;11740;51.168;4.112;2023-05-19T14:16:37;25.60;1.00
23143;DHT22;11740;51.168;4.112;2023-05-19T14:19:05;25.80;1.00
23143;DHT22;11740;51.168;4.112;2023-05-19T14:21:32;25.80;1.00
23143;DHT22;11740;51.168;4.112;2023-05-19T14:24:00;25.70;1.00
23143;DHT22;11740;51.168;4.112;2023-05-19T14:26:26;25.80;1.00
23143;DHT22;11740;51.168;4.112;2023-05-19T14:28:54;26.00;1.00
23143;DHT22;11740;51.168;4.112;2023-05-19T14:31:22;26.10;1.00
23143;DHT22;11740;51.168;4.112;2023-05-19T14:33:50;25.90;1.00
23143;DHT22;11740;51.168;4.112;2023-05-19T14:36:17;26.00;1.00
23143;DHT22;11740;51.168;4.112;2023-05-19T14:38:43;26.10;1.00
23143;DHT22;11740;51.168;4.112;2023-05-19T14:41:10;26.20;1.00
23143;DHT22;11740;51.168;4.112;2023-05-19T14:43:37;26.20;1.00
23143;DHT22;11740;51.168;4.112;2023-05-19T14:46:06;26.30;1.00
23143;DHT22;11740;51.168;4.112;2023-05-19T14:48:33;26.20;1.00
23143;DHT22;11740;51.168;4.112;2023-05-19T14:51:00;26.50;1.00
23143;DHT22;11740;51.168;4.112;2023-05-19T14:53:27;26.70;1.00
23143;DHT22;11740;51.168;4.112;2023-05-19T14:55:54;26.40;1.00
23143;DHT22;11740;51.168;4.112;2023-05-19T14:58:21;26.40;1.00
23143;DHT22;11740;51.168;4.112;2023-05-19T15:00:57;26.10;1.00
23143;DHT22;11740;51.168;4.112;2023-05-19T15:03:25;26.00;1.00
23143;DHT22;11740;51.168;4.112;2023-05-19T15:05:51;26.00;1.00
23143;DHT22;11740;51.168;4.112;2023-05-19T15:08:18;26.30;1.00
23143;DHT22;11740;51.168;4.112;2023-05-19T15:10:48;26.60;1.00
23143;DHT22;11740;51.168;4.112;2023-05-19T15:13:15;26.80;1.00
23143;DHT22;11740;51.168;4.112;2023-05-19T15:15:44;26.90;1.00
23143;DHT22;11740;51.168;4.112;2023-05-19T15:18:11;27.10;1.00
23143;DHT22;11740;51.168;4.112;2023-05-19T15:20:38;27.20;1.00
23143;DHT22;11740;51.168;4.112;2023-05-19T15:23:05;27.10;1.00
23143;DHT22;11740;51.168;4.112;2023-05-19T15:25:32;27.10;1.00
23143;DHT22;11740;51.168;4.112;2023-05-19T15:27:59;27.30;1.00
23143;DHT22;11740;51.168;4.112;2023-05-19T15:30:25;27.30;1.00
23143;DHT22;11740;51.168;4.112;2023-05-19T15:32:52;27.70;1.00
23143;DHT22;11740;51.168;4.112;2023-05-19T15:35:19;27.70;1.00
23143;DHT22;11740;51.168;4.112;2023-05-19T15:37:46;27.60;1.00
23143;DHT22;11740;51.168;4.112;2023-05-19T15:40:13;27.60;1.00
23143;DHT22;11740;51.168;4.112;2023-05-19T15:42:40;27.80;1.00
23143;DHT22;11740;51.168;4.112;2023-05-19T15:45:07;27.80;1.00
23143;DHT22;11740;51.168;4.112;2023-05-19T15:47:34;27.80;1.00
23143;DHT22;11740;51.168;4.112;2023-05-19T15:50:01;27.80;1.00
23143;DHT22;11740;51.168;4.112;2023-05-19T15:52:28;27.50;1.00
23143;DHT22;11740;51.168;4.112;2023-05-19T15:54:55;27.70;1.00
23143;DHT22;11740;51.168;4.112;2023-05-19T15:57:24;27.80;1.00
23143;DHT22;11740;51.168;4.112;2023-05-19T15:59:52;27.90;1.00
23143;DHT22;11740;51.168;4.112;2023-05-19T16:02:19;28.00;1.00
23143;DHT22;11740;51.168;4.112;2023-05-19T16:04:45;27.60;1.00
23143;DHT22;11740;51.168;4.112;2023-05-19T16:07:12;27.60;1.00
23143;DHT22;11740;51.168;4.112;2023-05-19T16:09:39;27.60;1.00
23143;DHT22;11740;51.168;4.112;2023-05-19T16:12:06;27.70;1.00
23143;DHT22;11740;51.168;4.112;2023-05-19T16:14:33;28.00;1.00
23143;DHT22;11740;51.168;4.112;2023-05-19T16:17:02;28.10;1.00
23143;DHT22;11740;51.168;4.112;2023-05-19T16:19:30;28.30;1.00
23143;DHT22;11740;51.168;4.112;2023-05-19T16:21:57;28.20;1.00
23143;DHT22;11740;51.168;4.112;2023-05-19T16:24:23;27.90;1.00
23143;DHT22;11740;51.168;4.112;2023-05-19T16:26:51;28.10;1.00
23143;DHT22;11740;51.168;4.112;2023-05-19T16:29:19;28.20;1.00